sensor_id;sensor_type;location;lat;lon;timestamp;P1;durP1;ratioP1;P2;durP2;ratioP2
74967;SDS011;63523;51.880;12.630;2022-12-10T00:00:37;25.17;;;7.70;;
74967;SDS011;63523;51.880;12.630;2022-12-10T00:03:02;23.70;;;6.72;;
74967;SDS011;63523;51.880;12.630;2022-12-10T00:05:29;21.13;;;6.63;;
74967;SDS011;63523;51.880;12.630;2022-12-10T00:07:55;22.43;;;6.97;;
74967;SDS011;63523;51.880;12.630;2022-12-10T00:10:20;22.95;;;6.60;;
74967;SDS011;63523;51.880;12.630;2022-12-10T00:12:46;21.00;;;6.67;;
74967;SDS011;63523;51.880;12.630;2022-12-10T00:15:11;21.40;;;6.87;;
74967;SDS011;63523;51.880;12.630;2022-12-10T00:17:37;27.07;;;7.80;;
74967;SDS011;63523;51.880;12.630;2022-12-10T00:20:02;23.48;;;6.88;;
74967;SDS011;63523;51.880;12.630;2022-12-10T00:22:28;24.43;;;7.37;;
74967;SDS011;63523;51.880;12.630;2022-12-10T00:24:53;24.13;;;7.63;;
74967;SDS011;63523;51.880;12.630;2022-12-10T00:27:19;25.08;;;7.40;;
74967;SDS011;63523;51.880;12.630;2022-12-10T00:29:45;24.38;;;7.70;;
74967;SDS011;63523;51.880;12.630;2022-12-10T00:32:10;23.50;;;6.57;;
74967;SDS011;63523;51.880;12.630;2022-12-10T00:34:36;25.00;;;7.43;;
74967;SDS011;63523;51.880;12.630;2022-12-10T00:37:01;23.63;;;6.93;;
74967;SDS011;63523;51.880;12.630;2022-12-10T00:39:27;24.75;;;7.50;;
74967;SDS011;63523;51.880;12.630;2022-12-10T00:41:52;24.27;;;7.93;;
74967;SDS011;63523;51.880;12.630;2022-12-10T00:44:18;25.80;;;7.33;;
74967;SDS011;63523;51.880;12.630;2022-12-10T00:46:44;27.80;;;7.68;;
74967;SDS011;63523;51.880;12.630;2022-12-10T00:49:09;25.80;;;7.57;;
74967;SDS011;63523;51.880;12.630;2022-12-10T00:51:35;24.23;;;7.22;;
74967;SDS011;63523;51.880;12.630;2022-12-10T00:54:01;25.25;;;7.47;;
74967;SDS011;63523;51.880;12.630;2022-12-10T00:56:28;21.57;;;6.90;;
74967;SDS011;63523;51.880;12.630;2022-12-10T00:58:55;26.20;;;8.43;;
74967;SDS011;63523;51.880;12.630;2022-12-10T01:01:26;27.10;;;7.72;;
74967;SDS011;63523;51.880;12.630;2022-12-10T01:03:56;25.77;;;7.78;;
74967;SDS011;63523;51.880;12.630;2022-12-10T01:06:24;29.33;;;7.87;;
74967;SDS011;63523;51.880;12.630;2022-12-10T01:08:56;25.17;;;7.40;;
74967;SDS011;63523;51.880;12.630;2022-12-10T01:11:25;23.48;;;7.68;;
74967;SDS011;63523;51.880;12.630;2022-12-10T01:13:54;25.27;;;7.22;;
74967;SDS011;63523;51.880;12.630;2022-12-10T01:16:20;30.20;;;8.37;;
74967;SDS011;63523;51.880;12.630;2022-12-10T01:18:47;28.58;;;8.27;;
74967;SDS011;63523;51.880;12.630;2022-12-10T01:21:15;25.58;;;6.95;;
74967;SDS011;63523;51.880;12.630;2022-12-10T01:23:42;25.50;;;7.68;;
74967;SDS011;63523;51.880;12.630;2022-12-10T01:26:11;22.83;;;7.40;;
74967;SDS011;63523;51.880;12.630;2022-12-10T01:28:39;28.73;;;8.57;;
74967;SDS011;63523;51.880;12.630;2022-12-10T01:31:06;28.90;;;7.22;;
74967;SDS011;63523;51.880;12.630;2022-12-10T01:33:33;26.40;;;7.93;;
74967;SDS011;63523;51.880;12.630;2022-12-10T01:36:04;24.27;;;7.55;;
74967;SDS011;63523;51.880;12.630;2022-12-10T01:38:38;22.15;;;6.93;;
74967;SDS011;63523;51.880;12.630;2022-12-10T01:41:04;25.02;;;8.25;;
74967;SDS011;63523;51.880;12.630;2022-12-10T01:46:19;23.88;;;6.55;;
74967;SDS011;63523;51.880;12.630;2022-12-10T01:48:46;22.77;;;6.72;;
74967;SDS011;63523;51.880;12.630;2022-12-10T01:51:12;20.67;;;6.83;;
74967;SDS011;63523;51.880;12.630;2022-12-10T01:53:38;24.50;;;6.85;;
74967;SDS011;63523;51.880;12.630;2022-12-10T01:56:04;23.00;;;7.30;;
74967;SDS011;63523;51.880;12.630;2022-12-10T01:58:29;23.53;;;6.67;;
74967;SDS011;63523;51.880;12.630;2022-12-10T02:00:57;22.90;;;7.43;;
74967;SDS011;63523;51.880;12.630;2022-12-10T02:17:29;22.27;;;7.00;;
74967;SDS011;63523;51.880;12.630;2022-12-10T02:22:25;24.23;;;7.20;;
74967;SDS011;63523;51.880;12.630;2022-12-10T02:24:53;24.15;;;7.20;;
74967;SDS011;63523;51.880;12.630;2022-12-10T02:27:26;23.58;;;7.13;;
74967;SDS011;63523;51.880;12.630;2022-12-10T02:29:56;19.35;;;6.10;;
74967;SDS011;63523;51.880;12.630;2022-12-10T02:32:25;23.33;;;6.85;;
74967;SDS011;63523;51.880;12.630;2022-12-10T02:34:57;22.83;;;6.88;;
74967;SDS011;63523;51.880;12.630;2022-12-10T02:37:36;22.42;;;6.53;;
74967;SDS011;63523;51.880;12.630;2022-12-10T02:40:08;25.27;;;6.28;;
74967;SDS011;63523;51.880;12.630;2022-12-10T02:42:38;21.58;;;6.90;;
74967;SDS011;63523;51.880;12.630;2022-12-10T02:45:06;20.08;;;6.20;;
74967;SDS011;63523;51.880;12.630;2022-12-10T02:47:33;18.20;;;6.00;;
74967;SDS011;63523;51.880;12.630;2022-12-10T02:50:00;22.42;;;6.90;;
74967;SDS011;63523;51.880;12.630;2022-12-10T02:52:26;24.35;;;6.95;;
74967;SDS011;63523;51.880;12.630;2022-12-10T02:54:52;25.27;;;7.38;;
74967;SDS011;63523;51.880;12.630;2022-12-10T02:57:23;27.55;;;8.23;;
74967;SDS011;63523;51.880;12.630;2022-12-10T03:11:02;22.67;;;7.40;;
74967;SDS011;63523;51.880;12.630;2022-12-10T03:14:16;19.75;;;6.47;;
74967;SDS011;63523;51.880;12.630;2022-12-10T03:16:26;20.85;;;5.85;;
74967;SDS011;63523;51.880;12.630;2022-12-10T03:18:57;21.27;;;6.40;;
74967;SDS011;63523;51.880;12.630;2022-12-10T03:21:26;22.70;;;6.97;;
74967;SDS011;63523;51.880;12.630;2022-12-10T03:23:55;21.80;;;6.50;;
74967;SDS011;63523;51.880;12.630;2022-12-10T03:26:21;22.17;;;7.10;;
74967;SDS011;63523;51.880;12.630;2022-12-10T03:28:52;22.92;;;7.00;;
74967;SDS011;63523;51.880;12.630;2022-12-10T03:31:23;21.52;;;6.50;;
74967;SDS011;63523;51.880;12.630;2022-12-10T03:33:48;23.33;;;7.40;;
74967;SDS011;63523;51.880;12.630;2022-12-10T03:36:15;22.45;;;6.80;;
74967;SDS011;63523;51.880;12.630;2022-12-10T03:38:43;24.25;;;7.18;;
74967;SDS011;63523;51.880;12.630;2022-12-10T03:41:09;25.73;;;7.75;;
74967;SDS011;63523;51.880;12.630;2022-12-10T03:43:34;25.10;;;8.33;;
74967;SDS011;63523;51.880;12.630;2022-12-10T03:46:00;23.93;;;7.93;;
74967;SDS011;63523;51.880;12.630;2022-12-10T03:48:26;26.60;;;8.10;;
74967;SDS011;63523;51.880;12.630;2022-12-10T03:50:51;23.77;;;7.23;;
74967;SDS011;63523;51.880;12.630;2022-12-10T03:53:17;22.80;;;7.10;;
74967;SDS011;63523;51.880;12.630;2022-12-10T03:55:42;22.67;;;6.50;;
74967;SDS011;63523;51.880;12.630;2022-12-10T03:58:08;24.97;;;7.30;;
74967;SDS011;63523;51.880;12.630;2022-12-10T04:00:33;23.27;;;6.97;;
74967;SDS011;63523;51.880;12.630;2022-12-10T04:02:59;23.93;;;7.80;;
74967;SDS011;63523;51.880;12.630;2022-12-10T04:05:24;23.27;;;7.20;;
74967;SDS011;63523;51.880;12.630;2022-12-10T04:07:50;25.80;;;7.80;;
74967;SDS011;63523;51.880;12.630;2022-12-10T04:10:15;24.60;;;7.17;;
74967;SDS011;63523;51.880;12.630;2022-12-10T04:12:41;22.60;;;7.13;;
74967;SDS011;63523;51.880;12.630;2022-12-10T04:15:07;26.60;;;7.50;;
74967;SDS011;63523;51.880;12.630;2022-12-10T04:17:51;29.67;;;8.02;;
74967;SDS011;63523;51.880;12.630;2022-12-10T04:20:17;24.23;;;7.30;;
74967;SDS011;63523;51.880;12.630;2022-12-10T04:23:01;24.33;;;7.63;;
74967;SDS011;63523;51.880;12.630;2022-12-10T04:25:45;23.63;;;6.80;;
74967;SDS011;63523;51.880;12.630;2022-12-10T04:28:29;20.75;;;6.50;;
74967;SDS011;63523;51.880;12.630;2022-12-10T04:30:55;26.10;;;8.17;;
74967;SDS011;63523;51.880;12.630;2022-12-10T04:33:20;22.73;;;7.33;;
74967;SDS011;63523;51.880;12.630;2022-12-10T04:35:46;25.85;;;8.00;;
74967;SDS011;63523;51.880;12.630;2022-12-10T04:38:11;24.23;;;7.97;;
74967;SDS011;63523;51.880;12.630;2022-12-10T04:40:37;24.27;;;7.80;;
74967;SDS011;63523;51.880;12.630;2022-12-10T04:43:02;25.45;;;7.30;;
74967;SDS011;63523;51.880;12.630;2022-12-10T04:45:33;24.43;;;6.90;;
74967;SDS011;63523;51.880;12.630;2022-12-10T04:47:59;26.33;;;7.72;;
74967;SDS011;63523;51.880;12.630;2022-12-10T04:50:25;24.97;;;7.53;;
74967;SDS011;63523;51.880;12.630;2022-12-10T04:52:50;22.67;;;7.23;;
74967;SDS011;63523;51.880;12.630;2022-12-10T04:55:15;25.10;;;6.77;;
74967;SDS011;63523;51.880;12.630;2022-12-10T04:57:42;22.20;;;7.43;;
74967;SDS011;63523;51.880;12.630;2022-12-10T05:00:08;25.73;;;7.60;;
74967;SDS011;63523;51.880;12.630;2022-12-10T05:02:34;21.88;;;7.95;;
74967;SDS011;63523;51.880;12.630;2022-12-10T05:05:00;26.05;;;8.48;;
74967;SDS011;63523;51.880;12.630;2022-12-10T05:07:25;28.10;;;8.83;;
74967;SDS011;63523;51.880;12.630;2022-12-10T05:09:51;29.40;;;9.02;;
74967;SDS011;63523;51.880;12.630;2022-12-10T05:12:16;27.70;;;8.60;;
74967;SDS011;63523;51.880;12.630;2022-12-10T05:14:42;27.13;;;8.60;;
74967;SDS011;63523;51.880;12.630;2022-12-10T05:17:07;31.90;;;8.15;;
74967;SDS011;63523;51.880;12.630;2022-12-10T05:19:33;25.83;;;8.63;;
74967;SDS011;63523;51.880;12.630;2022-12-10T05:21:59;29.07;;;9.17;;
74967;SDS011;63523;51.880;12.630;2022-12-10T05:24:43;28.10;;;8.55;;
74967;SDS011;63523;51.880;12.630;2022-12-10T05:27:08;25.63;;;7.80;;
74967;SDS011;63523;51.880;12.630;2022-12-10T05:29:34;26.70;;;8.35;;
74967;SDS011;63523;51.880;12.630;2022-12-10T05:31:59;27.23;;;8.27;;
74967;SDS011;63523;51.880;12.630;2022-12-10T05:34:25;27.90;;;7.70;;
74967;SDS011;63523;51.880;12.630;2022-12-10T05:36:51;24.42;;;7.30;;
74967;SDS011;63523;51.880;12.630;2022-12-10T05:39:16;24.47;;;7.47;;
74967;SDS011;63523;51.880;12.630;2022-12-10T05:41:42;22.40;;;7.65;;
74967;SDS011;63523;51.880;12.630;2022-12-10T05:44:12;27.02;;;7.40;;
74967;SDS011;63523;51.880;12.630;2022-12-10T05:46:38;25.60;;;8.48;;
74967;SDS011;63523;51.880;12.630;2022-12-10T05:49:04;26.77;;;8.18;;
74967;SDS011;63523;51.880;12.630;2022-12-10T05:51:31;26.30;;;8.43;;
74967;SDS011;63523;51.880;12.630;2022-12-10T05:53:59;28.17;;;8.52;;
74967;SDS011;63523;51.880;12.630;2022-12-10T05:56:26;25.77;;;8.50;;
74967;SDS011;63523;51.880;12.630;2022-12-10T05:58:57;30.02;;;9.15;;
74967;SDS011;63523;51.880;12.630;2022-12-10T06:01:26;28.55;;;8.25;;
74967;SDS011;63523;51.880;12.630;2022-12-10T06:03:54;27.00;;;8.80;;
74967;SDS011;63523;51.880;12.630;2022-12-10T06:06:22;29.17;;;8.57;;
74967;SDS011;63523;51.880;12.630;2022-12-10T06:08:48;26.92;;;8.60;;
74967;SDS011;63523;51.880;12.630;2022-12-10T06:11:14;30.55;;;9.93;;
74967;SDS011;63523;51.880;12.630;2022-12-10T06:13:40;29.23;;;8.80;;
74967;SDS011;63523;51.880;12.630;2022-12-10T06:16:06;31.02;;;8.40;;
74967;SDS011;63523;51.880;12.630;2022-12-10T06:18:34;29.40;;;8.48;;
74967;SDS011;63523;51.880;12.630;2022-12-10T06:21:07;29.20;;;9.65;;
74967;SDS011;63523;51.880;12.630;2022-12-10T06:23:37;27.13;;;8.82;;
74967;SDS011;63523;51.880;12.630;2022-12-10T06:26:14;32.42;;;9.38;;
74967;SDS011;63523;51.880;12.630;2022-12-10T06:28:41;28.02;;;9.45;;
74967;SDS011;63523;51.880;12.630;2022-12-10T06:31:09;30.40;;;9.23;;
74967;SDS011;63523;51.880;12.630;2022-12-10T06:33:35;29.98;;;9.27;;
74967;SDS011;63523;51.880;12.630;2022-12-10T06:36:04;27.83;;;8.07;;
74967;SDS011;63523;51.880;12.630;2022-12-10T06:38:31;27.60;;;8.15;;
74967;SDS011;63523;51.880;12.630;2022-12-10T06:40:57;33.55;;;9.00;;
74967;SDS011;63523;51.880;12.630;2022-12-10T06:43:23;29.75;;;8.68;;
74967;SDS011;63523;51.880;12.630;2022-12-10T06:45:48;29.17;;;9.27;;
74967;SDS011;63523;51.880;12.630;2022-12-10T06:48:14;25.83;;;7.97;;
74967;SDS011;63523;51.880;12.630;2022-12-10T06:50:39;30.73;;;9.07;;
74967;SDS011;63523;51.880;12.630;2022-12-10T06:53:06;30.88;;;9.23;;
74967;SDS011;63523;51.880;12.630;2022-12-10T06:55:31;30.27;;;8.77;;
74967;SDS011;63523;51.880;12.630;2022-12-10T06:57:57;31.50;;;8.97;;
74967;SDS011;63523;51.880;12.630;2022-12-10T07:00:23;28.67;;;9.18;;
74967;SDS011;63523;51.880;12.630;2022-12-10T07:02:49;30.43;;;8.50;;
74967;SDS011;63523;51.880;12.630;2022-12-10T07:05:14;28.98;;;8.57;;
74967;SDS011;63523;51.880;12.630;2022-12-10T07:07:40;30.70;;;8.83;;
74967;SDS011;63523;51.880;12.630;2022-12-10T07:10:06;31.23;;;9.17;;
74967;SDS011;63523;51.880;12.630;2022-12-10T07:12:32;32.33;;;8.52;;
74967;SDS011;63523;51.880;12.630;2022-12-10T07:14:58;31.40;;;9.25;;
74967;SDS011;63523;51.880;12.630;2022-12-10T07:17:23;31.10;;;10.10;;
74967;SDS011;63523;51.880;12.630;2022-12-10T07:19:49;31.40;;;9.10;;
74967;SDS011;63523;51.880;12.630;2022-12-10T07:22:14;31.33;;;8.85;;
74967;SDS011;63523;51.880;12.630;2022-12-10T07:24:40;28.03;;;7.97;;
74967;SDS011;63523;51.880;12.630;2022-12-10T07:27:06;28.10;;;7.90;;
74967;SDS011;63523;51.880;12.630;2022-12-10T07:29:32;29.42;;;9.43;;
74967;SDS011;63523;51.880;12.630;2022-12-10T07:31:58;28.40;;;8.15;;
74967;SDS011;63523;51.880;12.630;2022-12-10T07:34:24;26.20;;;7.97;;
74967;SDS011;63523;51.880;12.630;2022-12-10T07:36:49;28.13;;;9.10;;
74967;SDS011;63523;51.880;12.630;2022-12-10T07:39:15;29.17;;;9.48;;
74967;SDS011;63523;51.880;12.630;2022-12-10T07:41:44;29.73;;;9.20;;
74967;SDS011;63523;51.880;12.630;2022-12-10T07:44:17;30.83;;;9.10;;
74967;SDS011;63523;51.880;12.630;2022-12-10T07:46:44;29.35;;;8.43;;
74967;SDS011;63523;51.880;12.630;2022-12-10T07:49:10;27.90;;;8.45;;
74967;SDS011;63523;51.880;12.630;2022-12-10T07:51:38;28.03;;;8.13;;
74967;SDS011;63523;51.880;12.630;2022-12-10T07:54:04;29.75;;;8.23;;
74967;SDS011;63523;51.880;12.630;2022-12-10T07:56:30;28.67;;;8.53;;
74967;SDS011;63523;51.880;12.630;2022-12-10T07:58:55;28.23;;;8.23;;
74967;SDS011;63523;51.880;12.630;2022-12-10T08:01:22;26.63;;;8.13;;
74967;SDS011;63523;51.880;12.630;2022-12-10T08:03:49;30.95;;;8.85;;
74967;SDS011;63523;51.880;12.630;2022-12-10T08:06:16;28.50;;;8.77;;
74967;SDS011;63523;51.880;12.630;2022-12-10T08:08:44;29.30;;;8.48;;
74967;SDS011;63523;51.880;12.630;2022-12-10T08:11:10;29.13;;;9.57;;
74967;SDS011;63523;51.880;12.630;2022-12-10T08:13:36;28.20;;;8.95;;
74967;SDS011;63523;51.880;12.630;2022-12-10T08:16:03;31.27;;;9.35;;
74967;SDS011;63523;51.880;12.630;2022-12-10T08:18:31;29.40;;;9.05;;
74967;SDS011;63523;51.880;12.630;2022-12-10T08:20:58;26.52;;;8.15;;
74967;SDS011;63523;51.880;12.630;2022-12-10T08:23:23;27.55;;;8.38;;
74967;SDS011;63523;51.880;12.630;2022-12-10T08:25:49;25.67;;;8.80;;
74967;SDS011;63523;51.880;12.630;2022-12-10T08:28:15;31.87;;;8.37;;
74967;SDS011;63523;51.880;12.630;2022-12-10T08:30:45;27.47;;;8.43;;
74967;SDS011;63523;51.880;12.630;2022-12-10T08:33:12;25.15;;;8.05;;
74967;SDS011;63523;51.880;12.630;2022-12-10T08:35:37;33.50;;;9.30;;
74967;SDS011;63523;51.880;12.630;2022-12-10T08:38:02;27.73;;;8.02;;
74967;SDS011;63523;51.880;12.630;2022-12-10T08:40:28;30.20;;;8.70;;
74967;SDS011;63523;51.880;12.630;2022-12-10T08:42:54;31.20;;;9.57;;
74967;SDS011;63523;51.880;12.630;2022-12-10T08:45:19;29.50;;;8.70;;
74967;SDS011;63523;51.880;12.630;2022-12-10T08:47:45;28.73;;;9.07;;
74967;SDS011;63523;51.880;12.630;2022-12-10T08:50:10;29.50;;;8.77;;
74967;SDS011;63523;51.880;12.630;2022-12-10T08:52:36;28.15;;;9.27;;
74967;SDS011;63523;51.880;12.630;2022-12-10T08:55:02;28.83;;;8.67;;
74967;SDS011;63523;51.880;12.630;2022-12-10T08:57:28;27.98;;;8.43;;
74967;SDS011;63523;51.880;12.630;2022-12-10T08:59:53;27.10;;;8.80;;
74967;SDS011;63523;51.880;12.630;2022-12-10T09:02:19;27.50;;;8.43;;
74967;SDS011;63523;51.880;12.630;2022-12-10T09:04:44;27.70;;;8.80;;
74967;SDS011;63523;51.880;12.630;2022-12-10T09:07:11;26.30;;;8.38;;
74967;SDS011;63523;51.880;12.630;2022-12-10T09:09:37;25.98;;;7.47;;
74967;SDS011;63523;51.880;12.630;2022-12-10T09:12:03;22.90;;;6.70;;
74967;SDS011;63523;51.880;12.630;2022-12-10T09:14:28;26.80;;;8.07;;
74967;SDS011;63523;51.880;12.630;2022-12-10T09:16:54;24.27;;;7.40;;
74967;SDS011;63523;51.880;12.630;2022-12-10T09:19:19;24.87;;;8.53;;
74967;SDS011;63523;51.880;12.630;2022-12-10T09:21:45;29.33;;;8.00;;
74967;SDS011;63523;51.880;12.630;2022-12-10T09:24:12;27.30;;;8.53;;
74967;SDS011;63523;51.880;12.630;2022-12-10T09:26:37;26.23;;;8.20;;
74967;SDS011;63523;51.880;12.630;2022-12-10T09:29:03;27.97;;;8.97;;
74967;SDS011;63523;51.880;12.630;2022-12-10T09:31:28;25.40;;;7.77;;
74967;SDS011;63523;51.880;12.630;2022-12-10T09:33:54;23.70;;;7.68;;
74967;SDS011;63523;51.880;12.630;2022-12-10T09:36:20;27.10;;;8.20;;
74967;SDS011;63523;51.880;12.630;2022-12-10T09:38:47;21.13;;;7.35;;
74967;SDS011;63523;51.880;12.630;2022-12-10T09:52:00;24.00;;;7.95;;
74967;SDS011;63523;51.880;12.630;2022-12-10T09:57:03;26.77;;;8.77;;
74967;SDS011;63523;51.880;12.630;2022-12-10T09:59:42;24.25;;;8.25;;
74967;SDS011;63523;51.880;12.630;2022-12-10T10:02:24;24.02;;;7.90;;
74967;SDS011;63523;51.880;12.630;2022-12-10T10:04:54;24.65;;;8.25;;
74967;SDS011;63523;51.880;12.630;2022-12-10T10:07:27;22.90;;;8.00;;
74967;SDS011;63523;51.880;12.630;2022-12-10T10:10:06;23.20;;;8.00;;
74967;SDS011;63523;51.880;12.630;2022-12-10T10:12:37;23.90;;;8.35;;
74967;SDS011;63523;51.880;12.630;2022-12-10T10:15:12;22.08;;;7.65;;
74967;SDS011;63523;51.880;12.630;2022-12-10T10:17:39;23.35;;;8.00;;
74967;SDS011;63523;51.880;12.630;2022-12-10T10:20:10;21.73;;;7.07;;
74967;SDS011;63523;51.880;12.630;2022-12-10T10:22:37;26.20;;;8.27;;
74967;SDS011;63523;51.880;12.630;2022-12-10T10:25:04;22.50;;;7.85;;
74967;SDS011;63523;51.880;12.630;2022-12-10T10:27:31;25.42;;;9.35;;
74967;SDS011;63523;51.880;12.630;2022-12-10T10:29:59;23.77;;;8.63;;
74967;SDS011;63523;51.880;12.630;2022-12-10T10:35:01;23.35;;;7.50;;
74967;SDS011;63523;51.880;12.630;2022-12-10T10:37:29;20.70;;;7.32;;
74967;SDS011;63523;51.880;12.630;2022-12-10T10:40:03;19.27;;;7.40;;
74967;SDS011;63523;51.880;12.630;2022-12-10T10:42:40;22.58;;;8.35;;
74967;SDS011;63523;51.880;12.630;2022-12-10T10:48:06;22.95;;;8.35;;
74967;SDS011;63523;51.880;12.630;2022-12-10T10:50:36;21.73;;;7.30;;
74967;SDS011;63523;51.880;12.630;2022-12-10T10:53:22;21.33;;;7.90;;
74967;SDS011;63523;51.880;12.630;2022-12-10T10:56:05;22.88;;;8.23;;
74967;SDS011;63523;51.880;12.630;2022-12-10T10:58:53;24.20;;;8.18;;
74967;SDS011;63523;51.880;12.630;2022-12-10T11:01:46;24.42;;;9.00;;
74967;SDS011;63523;51.880;12.630;2022-12-10T11:04:14;23.10;;;8.45;;
74967;SDS011;63523;51.880;12.630;2022-12-10T11:06:42;25.20;;;8.63;;
74967;SDS011;63523;51.880;12.630;2022-12-10T11:09:13;23.67;;;8.45;;
74967;SDS011;63523;51.880;12.630;2022-12-10T11:12:04;22.48;;;8.60;;
74967;SDS011;63523;51.880;12.630;2022-12-10T11:14:43;23.42;;;9.10;;
74967;SDS011;63523;51.880;12.630;2022-12-10T11:19:43;22.85;;;8.52;;
74967;SDS011;63523;51.880;12.630;2022-12-10T11:22:31;24.70;;;9.02;;
74967;SDS011;63523;51.880;12.630;2022-12-10T11:24:58;26.92;;;9.25;;
74967;SDS011;63523;51.880;12.630;2022-12-10T11:27:34;23.33;;;8.90;;
74967;SDS011;63523;51.880;12.630;2022-12-10T11:30:12;23.02;;;8.45;;
74967;SDS011;63523;51.880;12.630;2022-12-10T11:39:02;23.10;;;8.90;;
74967;SDS011;63523;51.880;12.630;2022-12-10T11:44:19;22.38;;;8.07;;
74967;SDS011;63523;51.880;12.630;2022-12-10T11:55:12;26.17;;;9.30;;
74967;SDS011;63523;51.880;12.630;2022-12-10T12:12:03;23.85;;;8.02;;
74967;SDS011;63523;51.880;12.630;2022-12-10T12:19:50;22.23;;;8.23;;
74967;SDS011;63523;51.880;12.630;2022-12-10T12:22:23;28.55;;;10.38;;
74967;SDS011;63523;51.880;12.630;2022-12-10T12:24:54;23.88;;;8.45;;
74967;SDS011;63523;51.880;12.630;2022-12-10T12:27:41;23.13;;;8.45;;
74967;SDS011;63523;51.880;12.630;2022-12-10T12:30:14;21.55;;;7.75;;
74967;SDS011;63523;51.880;12.630;2022-12-10T12:32:55;24.15;;;9.00;;
74967;SDS011;63523;51.880;12.630;2022-12-10T12:35:47;24.23;;;7.75;;
74967;SDS011;63523;51.880;12.630;2022-12-10T12:46:35;22.63;;;8.57;;
74967;SDS011;63523;51.880;12.630;2022-12-10T12:49:15;23.15;;;8.00;;
74967;SDS011;63523;51.880;12.630;2022-12-10T12:51:52;24.30;;;8.43;;
74967;SDS011;63523;51.880;12.630;2022-12-10T12:54:25;22.27;;;8.15;;
74967;SDS011;63523;51.880;12.630;2022-12-10T12:59:47;20.80;;;7.82;;
74967;SDS011;63523;51.880;12.630;2022-12-10T13:05:21;24.30;;;8.45;;
74967;SDS011;63523;51.880;12.630;2022-12-10T13:08:20;21.15;;;7.72;;
74967;SDS011;63523;51.880;12.630;2022-12-10T13:15:55;23.60;;;8.67;;
74967;SDS011;63523;51.880;12.630;2022-12-10T13:18:54;22.08;;;7.82;;
74967;SDS011;63523;51.880;12.630;2022-12-10T13:21:26;23.48;;;8.75;;
74967;SDS011;63523;51.880;12.630;2022-12-10T13:24:04;22.55;;;7.43;;
74967;SDS011;63523;51.880;12.630;2022-12-10T13:26:31;22.48;;;8.23;;
74967;SDS011;63523;51.880;12.630;2022-12-10T13:31:41;24.88;;;7.95;;
74967;SDS011;63523;51.880;12.630;2022-12-10T13:34:22;23.58;;;8.52;;
74967;SDS011;63523;51.880;12.630;2022-12-10T13:39:32;21.70;;;7.45;;
74967;SDS011;63523;51.880;12.630;2022-12-10T13:44:50;19.25;;;7.03;;
74967;SDS011;63523;51.880;12.630;2022-12-10T13:58:16;23.20;;;7.70;;
74967;SDS011;63523;51.880;12.630;2022-12-10T14:08:40;21.23;;;7.77;;
74967;SDS011;63523;51.880;12.630;2022-12-10T14:11:17;19.65;;;7.30;;
74967;SDS011;63523;51.880;12.630;2022-12-10T14:13:47;24.42;;;8.63;;
74967;SDS011;63523;51.880;12.630;2022-12-10T14:16:18;22.42;;;9.50;;
74967;SDS011;63523;51.880;12.630;2022-12-10T14:18:56;21.05;;;8.20;;
74967;SDS011;63523;51.880;12.630;2022-12-10T14:21:24;23.57;;;8.57;;
74967;SDS011;63523;51.880;12.630;2022-12-10T14:23:51;22.67;;;8.55;;
74967;SDS011;63523;51.880;12.630;2022-12-10T14:26:18;23.15;;;8.70;;
74967;SDS011;63523;51.880;12.630;2022-12-10T14:28:48;24.05;;;8.23;;
74967;SDS011;63523;51.880;12.630;2022-12-10T14:31:31;25.00;;;8.90;;
74967;SDS011;63523;51.880;12.630;2022-12-10T14:34:01;21.30;;;8.30;;
74967;SDS011;63523;51.880;12.630;2022-12-10T14:36:29;22.05;;;8.10;;
74967;SDS011;63523;51.880;12.630;2022-12-10T14:38:57;21.42;;;7.28;;
74967;SDS011;63523;51.880;12.630;2022-12-10T14:41:24;22.73;;;8.45;;
74967;SDS011;63523;51.880;12.630;2022-12-10T14:43:52;20.92;;;7.88;;
74967;SDS011;63523;51.880;12.630;2022-12-10T14:46:20;22.23;;;8.50;;
74967;SDS011;63523;51.880;12.630;2022-12-10T14:48:52;21.02;;;8.35;;
74967;SDS011;63523;51.880;12.630;2022-12-10T14:51:20;20.95;;;8.15;;
74967;SDS011;63523;51.880;12.630;2022-12-10T14:53:49;20.70;;;8.10;;
74967;SDS011;63523;51.880;12.630;2022-12-10T14:56:24;20.50;;;7.60;;
74967;SDS011;63523;51.880;12.630;2022-12-10T15:01:33;19.65;;;7.65;;
74967;SDS011;63523;51.880;12.630;2022-12-10T15:04:03;21.70;;;8.23;;
74967;SDS011;63523;51.880;12.630;2022-12-10T15:06:37;19.60;;;7.68;;
74967;SDS011;63523;51.880;12.630;2022-12-10T15:09:03;18.55;;;7.25;;
74967;SDS011;63523;51.880;12.630;2022-12-10T15:11:30;20.15;;;7.47;;
74967;SDS011;63523;51.880;12.630;2022-12-10T15:13:58;18.17;;;7.25;;
74967;SDS011;63523;51.880;12.630;2022-12-10T15:19:20;21.33;;;8.32;;
74967;SDS011;63523;51.880;12.630;2022-12-10T15:21:47;20.77;;;8.18;;
74967;SDS011;63523;51.880;12.630;2022-12-10T15:24:14;20.65;;;8.02;;
74967;SDS011;63523;51.880;12.630;2022-12-10T15:26:42;18.73;;;7.90;;
74967;SDS011;63523;51.880;12.630;2022-12-10T15:31:47;19.17;;;8.23;;
74967;SDS011;63523;51.880;12.630;2022-12-10T15:34:14;21.50;;;8.02;;
74967;SDS011;63523;51.880;12.630;2022-12-10T15:36:41;20.60;;;8.18;;
74967;SDS011;63523;51.880;12.630;2022-12-10T15:42:08;20.10;;;8.20;;
74967;SDS011;63523;51.880;12.630;2022-12-10T15:44:38;23.40;;;8.20;;
74967;SDS011;63523;51.880;12.630;2022-12-10T15:49:53;20.55;;;8.10;;
74967;SDS011;63523;51.880;12.630;2022-12-10T15:52:21;20.20;;;8.27;;
74967;SDS011;63523;51.880;12.630;2022-12-10T15:54:50;23.88;;;8.88;;
74967;SDS011;63523;51.880;12.630;2022-12-10T15:57:21;18.88;;;8.15;;
74967;SDS011;63523;51.880;12.630;2022-12-10T15:59:48;20.75;;;8.27;;
74967;SDS011;63523;51.880;12.630;2022-12-10T16:05:02;20.80;;;7.90;;
74967;SDS011;63523;51.880;12.630;2022-12-10T16:07:38;20.80;;;7.78;;
74967;SDS011;63523;51.880;12.630;2022-12-10T16:10:04;22.10;;;8.32;;
74967;SDS011;63523;51.880;12.630;2022-12-10T16:12:31;19.42;;;7.68;;
74967;SDS011;63523;51.880;12.630;2022-12-10T16:14:59;21.02;;;7.97;;
74967;SDS011;63523;51.880;12.630;2022-12-10T16:17:26;22.37;;;9.13;;
74967;SDS011;63523;51.880;12.630;2022-12-10T16:19:53;22.55;;;8.52;;
74967;SDS011;63523;51.880;12.630;2022-12-10T16:22:21;22.92;;;8.38;;
74967;SDS011;63523;51.880;12.630;2022-12-10T16:24:46;21.10;;;8.33;;
74967;SDS011;63523;51.880;12.630;2022-12-10T16:27:12;22.03;;;8.20;;
74967;SDS011;63523;51.880;12.630;2022-12-10T16:29:39;21.35;;;7.68;;
74967;SDS011;63523;51.880;12.630;2022-12-10T16:32:07;20.35;;;8.23;;
74967;SDS011;63523;51.880;12.630;2022-12-10T16:34:34;23.33;;;8.43;;
74967;SDS011;63523;51.880;12.630;2022-12-10T16:37:00;19.63;;;8.00;;
74967;SDS011;63523;51.880;12.630;2022-12-10T16:39:25;23.13;;;9.20;;
74967;SDS011;63523;51.880;12.630;2022-12-10T16:41:54;24.43;;;9.00;;
74967;SDS011;63523;51.880;12.630;2022-12-10T16:44:20;23.38;;;8.85;;
74967;SDS011;63523;51.880;12.630;2022-12-10T16:46:46;20.65;;;9.00;;
74967;SDS011;63523;51.880;12.630;2022-12-10T16:49:12;21.40;;;8.13;;
74967;SDS011;63523;51.880;12.630;2022-12-10T16:51:37;21.85;;;8.85;;
74967;SDS011;63523;51.880;12.630;2022-12-10T16:54:04;20.63;;;7.63;;
74967;SDS011;63523;51.880;12.630;2022-12-10T16:56:30;19.60;;;7.87;;
74967;SDS011;63523;51.880;12.630;2022-12-10T16:58:55;21.80;;;8.27;;
74967;SDS011;63523;51.880;12.630;2022-12-10T17:01:25;20.57;;;8.03;;